Time;durP1;ratioP1;P1;durP2;ratioP2;P2;SDS_P1;SDS_P2;PMS_P1;PMS_P2;Temp;Humidity;BMP_temperature;BMP_pressure;BME280_temperature;BME280_humidity;BME280_pressure;Samples;Min_cycle;Max_cycle;Signal;HPM_P1;HPM_P2
2022/07/31 00:00:22;;;;;;;;;;;;;;;;;;5114239;28;1331;-72
2022/07/31 00:02:48;;;;;;;;;;;;;;;;;;5113806;28;1906;-72
2022/07/31 00:05:14;;;;;;;;;;;;;;;;;;5114279;28;829;-72
2022/07/31 00:07:40;;;;;;;;;;;;;;;;;;5114316;28;1119;-72
2022/07/31 00:10:07;;;;;;;;;;;;;;;;;;5114062;28;743;-72
2022/07/31 00:12:33;;;;;;;;;;;;;;;;;;5113518;28;1310;-72
2022/07/31 00:15:01;;;;;;;;;;;;;;;;;;5113982;28;1054;-72
2022/07/31 00:17:27;;;;;;;;;;;;;;;;;;5113895;28;1067;-71
2022/07/31 00:19:53;;;;;;;;;;;;;;;;;;5114036;28;1299;-72
2022/07/31 00:22:19;;;;;;;;;;;;;;;;;;5094720;28;1983;-72
2022/07/31 00:24:46;;;;;;;;;;;;;;;;;;5113804;28;1070;-72
2022/07/31 00:27:12;;;;;;;;;;;;;;;;;;5113738;28;1075;-72
2022/07/31 00:29:38;;;;;;;;;;;;;;;;;;5095332;28;881;-72
2022/07/31 00:32:06;;;;;;;;;;;;;;;;;;5113296;28;1464;-72
2022/07/31 00:34:32;;;;;;;;;;;;;;;;;;5113411;28;1078;-72
2022/07/31 00:37:01;;;;;;;;;;;;;;;;;;5095380;28;1521;-73
2022/07/31 00:39:27;;;;;;;;;;;;;;;;;;5094733;28;1231;-72
2022/07/31 00:41:54;;;;;;;;;;;;;;;;;;5094378;28;1909;-72
2022/07/31 00:44:20;;;;;;;;;;;;;;;;;;5095197;28;1102;-72
2022/07/31 00:46:46;;;;;;;;;;;;;;;;;;5095005;28;933;-72
2022/07/31 00:49:14;;;;;;;;;;;;;;;;;;5094800;28;1392;-72
2022/07/31 00:51:40;;;;;;;;;;;;;;;;;;5112743;28;1327;-72
2022/07/31 00:54:06;;;;;;;;;;;;;;;;;;5113278;28;935;-72
2022/07/31 00:56:33;;;;;;;;;;;;;;;;;;5094848;28;1256;-72
2022/07/31 00:58:59;;;;;;;;;;;;;;;;;;5094849;28;1216;-72
2022/07/31 01:01:26;;;;;;;;;;;;;;;;;;5112074;28;1909;-73
2022/07/31 01:03:52;;;;;;;;;;;;;;;;;;5112976;28;837;-71
2022/07/31 01:06:20;;;;;;;;;;;;;;;;;;5113255;28;841;-73
2022/07/31 01:08:47;;;;;;;;;;;;;;;;;;5094402;28;1530;-73
2022/07/31 01:11:13;;;;;;;;;;;;;;;;;;5112976;28;1340;-72
2022/07/31 01:13:41;;;;;;;;;;;;;;;;;;5112712;28;813;-73
2022/07/31 01:16:07;;;;;;;;;;;;;;;;;;5094648;28;1438;-73
2022/07/31 01:18:34;;;;;;;;;;;;;;;;;;5112909;28;725;-72
2022/07/31 01:21:03;;;;;;;;;;;;;;;;;;5094323;28;1323;-73
2022/07/31 01:23:35;;;;;;;;;;;;;;;;;;5094258;28;1979;-73
2022/07/31 01:26:17;;;;;;;;;;;;;;;;;;5094201;28;1432;-72
2022/07/31 01:29:02;;;;;;;;;;;;;;;;;;5094481;28;1327;-72
2022/07/31 01:31:30;;;;;;;;;;;;;;;;;;5093644;28;2025;-72
2022/07/31 01:33:59;;;;;;;;;;;;;;;;;;5094391;28;1284;-73
2022/07/31 01:36:25;;;;;;;;;;;;;;;;;;5112346;28;785;-73
2022/07/31 01:38:52;;;;;;;;;;;;;;;;;;5094271;28;1150;-72
2022/07/31 01:41:20;;;;;;;;;;;;;;;;;;5093691;28;1906;-72
2022/07/31 01:43:46;;;;;;;;;;;;;;;;;;5094134;28;1119;-72
2022/07/31 01:46:14;;;;;;;;;;;;;;;;;;5093947;28;1343;-73
2022/07/31 01:48:41;;;;;;;;;;;;;;;;;;5094175;28;1177;-72
2022/07/31 01:51:07;;;;;;;;;;;;;;;;;;5093901;28;1348;-72
2022/07/31 01:53:35;;;;;;;;;;;;;;;;;;5093291;28;1320;-73
2022/07/31 01:56:01;;;;;;;;;;;;;;;;;;5093891;28;1283;-72
2022/07/31 01:58:29;;;;;;;;;;;;;;;;;;5094014;28;954;-72
2022/07/31 02:00:59;;;;;;;;;;;;;;;;;;5093840;28;1396;-72
2022/07/31 02:03:28;;;;;;;;;;;;;;;;;;5093221;28;1983;-72
2022/07/31 02:05:54;;;;;;;;;;;;;;;;;;5111957;28;829;-72
2022/07/31 02:08:21;;;;;;;;;;;;;;;;;;5093476;28;1152;-72
2022/07/31 02:10:47;;;;;;;;;;;;;;;;;;5093492;28;1349;-72
2022/07/31 02:13:14;;;;;;;;;;;;;;;;;;5093564;28;1219;-72
2022/07/31 02:15:40;;;;;;;;;;;;;;;;;;5093088;28;1669;-72
2022/07/31 02:18:07;;;;;;;;;;;;;;;;;;5093368;28;1587;-72
2022/07/31 02:20:34;;;;;;;;;;;;;;;;;;5111672;28;1307;-73
2022/07/31 02:23:01;;;;;;;;;;;;;;;;;;5111663;28;1894;-73
2022/07/31 02:25:28;;;;;;;;;;;;;;;;;;5093205;28;1395;-73
2022/07/31 02:27:55;;;;;;;;;;;;;;;;;;5093483;28;1006;-73
2022/07/31 02:30:22;;;;;;;;;;;;;;;;;;5093345;28;1406;-73
2022/07/31 02:32:49;;;;;;;;;;;;;;;;;;5093066;28;1159;-73
2022/07/31 02:35:15;;;;;;;;;;;;;;;;;;5093421;28;1300;-73
2022/07/31 02:37:44;;;;;;;;;;;;;;;;;;5093479;28;1514;-73
2022/07/31 02:40:11;;;;;;;;;;;;;;;;;;5093266;28;1156;-72
2022/07/31 02:42:37;;;;;;;;;;;;;;;;;;5092719;28;1986;-73
2022/07/31 02:45:03;;;;;;;;;;;;;;;;;;5093234;28;1350;-73
2022/07/31 02:47:29;;;;;;;;;;;;;;;;;;5092998;28;1524;-72
2022/07/31 02:49:58;;;;;;;;;;;;;;;;;;5093273;28;1359;-72
2022/07/31 02:52:25;;;;;;;;;;;;;;;;;;5110937;28;1414;-72
2022/07/31 02:54:52;;;;;;;;;;;;;;;;;;5093417;28;1387;-73
2022/07/31 02:57:19;;;;;;;;;;;;;;;;;;5093369;28;1422;-73
2022/07/31 02:59:45;;;;;;;;;;;;;;;;;;5093111;28;1304;-73
2022/07/31 03:02:12;;;;;;;;;;;;;;;;;;5092607;28;1984;-73
2022/07/31 03:04:42;;;;;;;;;;;;;;;;;;5095832;28;1486;-73
2022/07/31 03:07:09;;;;;;;;;;;;;;;;;;5115693;28;863;-73
2022/07/31 03:09:35;;;;;;;;;;;;;;;;;;5096842;28;988;-72
2022/07/31 03:12:31;;;;;;;;;;;;;;;;;;5114787;28;1321;-73
2022/07/31 03:14:58;;;;;;;;;;;;;;;;;;5096834;28;1350;-71
2022/07/31 03:17:24;;;;;;;;;;;;;;;;;;5096908;28;1333;-73
2022/07/31 03:19:55;;;;;;;;;;;;;;;;;;5093582;28;2397;-73
2022/07/31 03:22:22;;;;;;;;;;;;;;;;;;5096164;28;1921;-71
2022/07/31 03:24:48;;;;;;;;;;;;;;;;;;5096784;28;1336;-72
2022/07/31 03:27:14;;;;;;;;;;;;;;;;;;5096686;28;1178;-72
2022/07/31 03:29:42;;;;;;;;;;;;;;;;;;5114786;28;1074;-73
2022/07/31 03:32:08;;;;;;;;;;;;;;;;;;5096019;28;1391;-72
2022/07/31 03:34:34;;;;;;;;;;;;;;;;;;5096850;28;1289;-72
2022/07/31 03:37:01;;;;;;;;;;;;;;;;;;5114586;28;814;-72
2022/07/31 03:39:27;;;;;;;;;;;;;;;;;;5096298;28;1210;-73
2022/07/31 03:41:58;;;;;;;;;;;;;;;;;;5096062;28;1918;-72
2022/07/31 03:44:24;;;;;;;;;;;;;;;;;;5096344;28;1324;-72
2022/07/31 03:46:52;;;;;;;;;;;;;;;;;;5096259;28;1331;-72
2022/07/31 03:49:18;;;;;;;;;;;;;;;;;;5096188;28;1406;-72
2022/07/31 03:51:44;;;;;;;;;;;;;;;;;;5095917;28;1412;-72
2022/07/31 03:54:11;;;;;;;;;;;;;;;;;;5096219;28;1452;-72
2022/07/31 03:56:44;;;;;;;;;;;;;;;;;;5114634;28;834;-72
2022/07/31 03:59:10;;;;;;;;;;;;;;;;;;5094880;28;1335;-73
2022/07/31 04:01:36;;;;;;;;;;;;;;;;;;5089126;28;1447;-72
2022/07/31 04:04:05;;;;;;;;;;;;;;;;;;5090096;28;1967;-72
2022/07/31 04:06:34;;;;;;;;;;;;;;;;;;5086730;28;1568;-71
2022/07/31 04:09:01;;;;;;;;;;;;;;;;;;5090870;28;1549;-71
2022/07/31 04:11:28;;;;;;;;;;;;;;;;;;5093611;28;1398;-73
2022/07/31 04:13:54;;;;;;;;;;;;;;;;;;5093304;28;1387;-73
2022/07/31 04:16:20;;;;;;;;;;;;;;;;;;5088985;28;1422;-72
2022/07/31 04:18:47;;;;;;;;;;;;;;;;;;5092807;28;1528;-73
2022/07/31 04:21:15;;;;;;;;;;;;;;;;;;5093480;28;1562;-73
2022/07/31 04:23:41;;;;;;;;;;;;;;;;;;5086205;28;1981;-71
2022/07/31 04:26:24;;;;;;;;;;;;;;;;;;5091708;28;1387;-72
2022/07/31 04:28:57;;;;;;;;;;;;;;;;;;5113201;27;1389;-72
2022/07/31 04:31:23;;;;;;;;;;;;;;;;;;5093256;28;1353;-72
2022/07/31 04:33:50;;;;;;;;;;;;;;;;;;5093494;28;1394;-73
2022/07/31 04:36:19;;;;;;;;;;;;;;;;;;5093456;28;1346;-72
2022/07/31 04:38:45;;;;;;;;;;;;;;;;;;5109133;28;1410;-71
2022/07/31 04:41:11;;;;;;;;;;;;;;;;;;5084487;28;1521;-70
2022/07/31 04:43:38;;;;;;;;;;;;;;;;;;5092781;28;1910;-72
2022/07/31 04:46:04;;;;;;;;;;;;;;;;;;5093013;28;1332;-72
2022/07/31 04:48:30;;;;;;;;;;;;;;;;;;5091592;28;1456;-71
2022/07/31 04:50:56;;;;;;;;;;;;;;;;;;5092609;28;1428;-71
2022/07/31 04:53:24;;;;;;;;;;;;;;;;;;5108988;28;1524;-71
2022/07/31 04:58:31;;;;;;;;;;;;;;;;;;5091100;28;1273;-71
2022/07/31 05:00:57;;;;;;;;;;;;;;;;;;5092499;28;1349;-72
2022/07/31 05:03:23;;;;;;;;;;;;;;;;;;5089537;28;1922;-71
2022/07/31 05:05:50;;;;;;;;;;;;;;;;;;5105059;28;1457;-71
2022/07/31 05:08:16;;;;;;;;;;;;;;;;;;5112479;28;1157;-70
2022/07/31 05:13:30;;;;;;;;;;;;;;;;;;5094279;28;1876;-70
2022/07/31 05:15:56;;;;;;;;;;;;;;;;;;5094380;28;1462;-72
2022/07/31 05:18:22;;;;;;;;;;;;;;;;;;5094700;28;1448;-69
2022/07/31 05:21:07;;;;;;;;;;;;;;;;;;5113032;28;1441;-72
2022/07/31 05:23:47;;;;;;;;;;;;;;;;;;5094012;28;1910;-70
2022/07/31 05:26:17;;;;;;;;;;;;;;;;;;5093384;28;1301;-70
2022/07/31 05:28:44;;;;;;;;;;;;;;;;;;5093703;28;1313;-72
2022/07/31 05:31:10;;;;;;;;;;;;;;;;;;5093499;28;1351;-72
2022/07/31 05:33:36;;;;;;;;;;;;;;;;;;5092319;28;1329;-71
2022/07/31 05:36:04;;;;;;;;;;;;;;;;;;5082620;28;1456;-71
2022/07/31 05:38:30;;;;;;;;;;;;;;;;;;5112575;28;1176;-72
2022/07/31 05:41:23;;;;;;;;;;;;;;;;;;5111887;28;1399;-71
2022/07/31 05:44:00;;;;;;;;;;;;;;;;;;5092109;28;1981;-71
2022/07/31 05:46:34;;;;;;;;;;;;;;;;;;5084131;28;1405;-72
2022/07/31 05:49:00;;;;;;;;;;;;;;;;;;5091071;28;1423;-71
2022/07/31 05:51:27;;;;;;;;;;;;;;;;;;5090677;28;1509;-73
2022/07/31 05:53:53;;;;;;;;;;;;;;;;;;5091818;28;1202;-71
2022/07/31 05:56:59;;;;;;;;;;;;;;;;;;5047113;28;1348;-71
2022/07/31 05:59:33;;;;;;;;;;;;;;;;;;5045561;28;1501;-72
2022/07/31 06:01:59;;;;;;;;;;;;;;;;;;5071714;28;1391;-71
2022/07/31 06:04:26;;;;;;;;;;;;;;;;;;5089318;28;1987;-72
2022/07/31 06:06:52;;;;;;;;;;;;;;;;;;5092033;28;1431;-72
2022/07/31 06:09:19;;;;;;;;;;;;;;;;;;5085446;28;1593;-70
2022/07/31 06:11:45;;;;;;;;;;;;;;;;;;5084004;28;1460;-69
2022/07/31 06:14:13;;;;;;;;;;;;;;;;;;5086771;28;1387;-70
2022/07/31 06:17:08;;;;;;;;;;;;;;;;;;5088055;28;1362;-69
2022/07/31 06:19:37;;;;;;;;;;;;;;;;;;5089769;28;1334;-70
2022/07/31 06:22:03;;;;;;;;;;;;;;;;;;5087798;28;1606;-70
2022/07/31 06:24:30;;;;;;;;;;;;;;;;;;5091304;28;1925;-70
2022/07/31 06:26:58;;;;;;;;;;;;;;;;;;5091073;28;1127;-70
2022/07/31 06:29:26;;;;;;;;;;;;;;;;;;5088846;28;1510;-69
2022/07/31 06:31:53;;;;;;;;;;;;;;;;;;5089965;28;1414;-70
2022/07/31 06:34:19;;;;;;;;;;;;;;;;;;5089995;28;1388;-70
2022/07/31 06:36:47;;;;;;;;;;;;;;;;;;5107809;28;1508;-71
2022/07/31 06:39:15;;;;;;;;;;;;;;;;;;5094801;28;1311;-71
2022/07/31 06:41:45;;;;;;;;;;;;;;;;;;5115179;28;1477;-71
2022/07/31 06:44:28;;;;;;;;;;;;;;;;;;5115498;28;1914;-71
2022/07/31 06:47:13;;;;;;;;;;;;;;;;;;5111043;28;1134;-72
2022/07/31 06:50:06;;;;;;;;;;;;;;;;;;5096999;28;1230;-71
2022/07/31 06:52:37;;;;;;;;;;;;;;;;;;5096429;28;1482;-72
2022/07/31 06:55:04;;;;;;;;;;;;;;;;;;5096011;28;1497;-72
2022/07/31 06:57:31;;;;;;;;;;;;;;;;;;5096714;28;1417;-71
2022/07/31 06:59:58;;;;;;;;;;;;;;;;;;5096656;28;1409;-71
2022/07/31 07:02:25;;;;;;;;;;;;;;;;;;5096363;28;1493;-72
2022/07/31 07:04:52;;;;;;;;;;;;;;;;;;5096849;28;1910;-72
2022/07/31 07:07:20;;;;;;;;;;;;;;;;;;5094995;28;1536;-72
2022/07/31 07:09:48;;;;;;;;;;;;;;;;;;5089131;28;1358;-72
2022/07/31 07:12:25;;;;;;;;;;;;;;;;;;5087529;28;1556;-72
2022/07/31 07:14:51;;;;;;;;;;;;;;;;;;5104464;28;1765;-72
2022/07/31 07:17:18;;;;;;;;;;;;;;;;;;5111438;28;1325;-72
2022/07/31 07:19:45;;;;;;;;;;;;;;;;;;5095737;28;1376;-72
2022/07/31 07:22:11;;;;;;;;;;;;;;;;;;5096082;28;1487;-72
2022/07/31 07:24:37;;;;;;;;;;;;;;;;;;5086881;28;1910;-72
2022/07/31 07:27:07;;;;;;;;;;;;;;;;;;5095240;28;1450;-72
2022/07/31 07:29:35;;;;;;;;;;;;;;;;;;5095294;28;1380;-72
2022/07/31 07:32:01;;;;;;;;;;;;;;;;;;5090955;28;1503;-72
2022/07/31 07:34:30;;;;;;;;;;;;;;;;;;5093572;27;1486;-72
2022/07/31 07:36:57;;;;;;;;;;;;;;;;;;5086339;28;1481;-73
2022/07/31 07:39:27;;;;;;;;;;;;;;;;;;5088230;28;1480;-73
2022/07/31 07:41:53;;;;;;;;;;;;;;;;;;5091379;28;1422;-73
2022/07/31 07:44:19;;;;;;;;;;;;;;;;;;5088929;28;1910;-73
2022/07/31 07:46:46;;;;;;;;;;;;;;;;;;5104165;28;1362;-74
2022/07/31 07:49:16;;;;;;;;;;;;;;;;;;5078691;28;1787;-73
2022/07/31 07:51:57;;;;;;;;;;;;;;;;;;5092398;28;1383;-71
2022/07/31 07:54:49;;;;;;;;;;;;;;;;;;5112714;28;1429;-74
2022/07/31 07:57:38;;;;;;;;;;;;;;;;;;5111977;28;1430;-73
2022/07/31 08:00:05;;;;;;;;;;;;;;;;;;5102361;28;1374;-72
2022/07/31 08:02:51;;;;;;;;;;;;;;;;;;5084731;28;1527;-72
2022/07/31 08:05:17;;;;;;;;;;;;;;;;;;5093544;28;1898;-73
2022/07/31 08:07:44;;;;;;;;;;;;;;;;;;5086197;28;1425;-73
2022/07/31 08:10:38;;;;;;;;;;;;;;;;;;5075110;28;1411;-73
2022/07/31 08:13:18;;;;;;;;;;;;;;;;;;5090827;28;1379;-72
2022/07/31 08:16:13;;;;;;;;;;;;;;;;;;5105758;28;1437;-72
2022/07/31 08:18:42;;;;;;;;;;;;;;;;;;5087871;28;1545;-72
2022/07/31 08:21:09;;;;;;;;;;;;;;;;;;5093769;28;1399;-71
2022/07/31 08:23:36;;;;;;;;;;;;;;;;;;5095234;27;1917;-72
2022/07/31 08:26:07;;;;;;;;;;;;;;;;;;5096945;28;1438;-72
2022/07/31 08:28:33;;;;;;;;;;;;;;;;;;5111322;27;1523;-72
2022/07/31 08:31:00;;;;;;;;;;;;;;;;;;5092940;28;1743;-72
2022/07/31 08:33:26;;;;;;;;;;;;;;;;;;5088049;28;1762;-72
2022/07/31 08:35:54;;;;;;;;;;;;;;;;;;5108541;28;1567;-71
2022/07/31 08:38:20;;;;;;;;;;;;;;;;;;5087843;28;1789;-72
2022/07/31 08:41:11;;;;;;;;;;;;;;;;;;5109729;28;1663;-72
2022/07/31 08:43:38;;;;;;;;;;;;;;;;;;5087099;28;1972;-72
2022/07/31 08:46:04;;;;;;;;;;;;;;;;;;5083510;28;1442;-72
2022/07/31 08:48:35;;;;;;;;;;;;;;;;;;5092956;28;1512;-73
2022/07/31 08:51:02;;;;;;;;;;;;;;;;;;5101081;28;1411;-72
2022/07/31 08:53:47;;;;;;;;;;;;;;;;;;5108259;28;1418;-72
2022/07/31 08:56:18;;;;;;;;;;;;;;;;;;5092868;28;1198;-72
2022/07/31 08:58:44;;;;;;;;;;;;;;;;;;5094159;28;1357;-73
2022/07/31 09:01:11;;;;;;;;;;;;;;;;;;5092283;28;1414;-72
2022/07/31 09:03:37;;;;;;;;;;;;;;;;;;5085777;28;1969;-72
2022/07/31 09:06:04;;;;;;;;;;;;;;;;;;5094412;28;1274;-73
2022/07/31 09:08:31;;;;;;;;;;;;;;;;;;5094485;28;1700;-73
2022/07/31 09:11:07;;;;;;;;;;;;;;;;;;5105337;28;1441;-73
2022/07/31 09:13:39;;;;;;;;;;;;;;;;;;5093882;28;1377;-73
2022/07/31 09:16:24;;;;;;;;;;;;;;;;;;5084589;28;1470;-72
2022/07/31 09:18:56;;;;;;;;;;;;;;;;;;5092183;28;1534;-73
2022/07/31 09:21:24;;;;;;;;;;;;;;;;;;5082031;28;1740;-72
2022/07/31 09:23:52;;;;;;;;;;;;;;;;;;5092293;28;1950;-73
2022/07/31 09:26:18;;;;;;;;;;;;;;;;;;5091217;28;1360;-73
2022/07/31 09:28:49;;;;;;;;;;;;;;;;;;5084314;28;1344;-73
2022/07/31 09:31:15;;;;;;;;;;;;;;;;;;5090772;28;1437;-72
2022/07/31 09:33:59;;;;;;;;;;;;;;;;;;5092205;28;1832;-73
2022/07/31 09:36:34;;;;;;;;;;;;;;;;;;5111899;28;1137;-73
2022/07/31 09:39:13;;;;;;;;;;;;;;;;;;5093477;28;1334;-73
2022/07/31 09:42:06;;;;;;;;;;;;;;;;;;5107265;28;1426;-73
2022/07/31 09:44:48;;;;;;;;;;;;;;;;;;5084083;28;1898;-74
2022/07/31 09:47:25;;;;;;;;;;;;;;;;;;5091386;28;1429;-73
2022/07/31 09:49:53;;;;;;;;;;;;;;;;;;5088915;28;1538;-73
2022/07/31 09:52:20;;;;;;;;;;;;;;;;;;5093430;28;1435;-73
2022/07/31 09:54:46;;;;;;;;;;;;;;;;;;5090917;28;1332;-73
2022/07/31 09:57:25;;;;;;;;;;;;;;;;;;5089591;28;1488;-73
2022/07/31 09:59:56;;;;;;;;;;;;;;;;;;5082537;28;1532;-73
2022/07/31 10:02:24;;;;;;;;;;;;;;;;;;5090599;28;1432;-73
2022/07/31 10:04:50;;;;;;;;;;;;;;;;;;5090592;28;1918;-72
2022/07/31 10:07:17;;;;;;;;;;;;;;;;;;5084129;28;1426;-73
2022/07/31 10:09:45;;;;;;;;;;;;;;;;;;5088426;28;1419;-73
2022/07/31 10:12:39;;;;;;;;;;;;;;;;;;5089921;28;1453;-72
2022/07/31 10:15:09;;;;;;;;;;;;;;;;;;5103619;28;1418;-72
2022/07/31 10:17:38;;;;;;;;;;;;;;;;;;5087922;28;1474;-72
2022/07/31 10:20:16;;;;;;;;;;;;;;;;;;5090432;28;1292;-73
2022/07/31 10:22:59;;;;;;;;;;;;;;;;;;5107543;28;980;-72
2022/07/31 10:25:28;;;;;;;;;;;;;;;;;;5090094;28;1972;-73
2022/07/31 10:27:57;;;;;;;;;;;;;;;;;;5085938;28;1406;-72
2022/07/31 10:30:24;;;;;;;;;;;;;;;;;;5085703;28;1699;-73
2022/07/31 10:32:53;;;;;;;;;;;;;;;;;;5101017;28;1445;-72
2022/07/31 10:35:41;;;;;;;;;;;;;;;;;;5103524;28;1076;-72
2022/07/31 10:38:18;;;;;;;;;;;;;;;;;;5092529;28;1414;-72
2022/07/31 10:41:04;;;;;;;;;;;;;;;;;;5089813;28;1442;-72
2022/07/31 10:43:35;;;;;;;;;;;;;;;;;;5091003;28;1328;-71
2022/07/31 10:46:15;;;;;;;;;;;;;;;;;;5084125;28;1916;-71
2022/07/31 10:48:51;;;;;;;;;;;;;;;;;;5110247;28;845;-70
2022/07/31 10:51:45;;;;;;;;;;;;;;;;;;5110384;28;1438;-72
2022/07/31 10:54:37;;;;;;;;;;;;;;;;;;5110361;28;985;-71
2022/07/31 10:57:23;;;;;;;;;;;;;;;;;;5110379;28;869;-71
2022/07/31 11:00:10;;;;;;;;;;;;;;;;;;5110575;28;690;-71
2022/07/31 11:02:56;;;;;;;;;;;;;;;;;;5110013;28;679;-71
2022/07/31 11:05:37;;;;;;;;;;;;;;;;;;5092179;28;1909;-72
2022/07/31 11:08:09;;;;;;;;;;;;;;;;;;5059496;22;4017;-76
2022/07/31 11:10:52;;;;;;;;;;;;;;;;;;5045149;28;1338;-76
2022/07/31 11:13:45;;;;;;;;;;;;;;;;;;5026857;28;1139;-76
2022/07/31 11:16:34;;;;;;;;;;;;;;;;;;5041598;28;1434;-76
2022/07/31 11:19:15;;;;;;;;;;;;;;;;;;5032064;28;1301;-76
2022/07/31 11:21:41;;;;;;;;;;;;;;;;;;5055487;28;1102;-76
2022/07/31 11:24:14;;;;;;;;;;;;;;;;;;5050301;28;1154;-75
2022/07/31 11:26:50;;;;;;;;;;;;;;;;;;5035778;28;1345;-76
2022/07/31 11:29:25;;;;;;;;;;;;;;;;;;5053565;28;1112;-77
2022/07/31 11:31:51;;;;;;;;;;;;;;;;;;5053363;28;1122;-77
2022/07/31 11:34:19;;;;;;;;;;;;;;;;;;5053321;28;1044;-76
2022/07/31 11:36:45;;;;;;;;;;;;;;;;;;5052847;28;1313;-77
2022/07/31 11:39:11;;;;;;;;;;;;;;;;;;5053264;28;1044;-76
2022/07/31 11:41:37;;;;;;;;;;;;;;;;;;5053103;28;1132;-77
2022/07/31 11:44:04;;;;;;;;;;;;;;;;;;5055908;28;1424;-76
2022/07/31 11:46:32;;;;;;;;;;;;;;;;;;5053310;28;1910;-78
2022/07/31 11:48:58;;;;;;;;;;;;;;;;;;5052329;28;1686;-77
2022/07/31 11:51:26;;;;;;;;;;;;;;;;;;5044036;28;1031;-77
2022/07/31 11:53:53;;;;;;;;;;;;;;;;;;5052612;28;1069;-77
2022/07/31 11:56:20;;;;;;;;;;;;;;;;;;5035385;28;1120;-76
2022/07/31 11:58:47;;;;;;;;;;;;;;;;;;5052589;28;1371;-77
2022/07/31 12:01:13;;;;;;;;;;;;;;;;;;5052587;28;909;-76
2022/07/31 12:03:39;;;;;;;;;;;;;;;;;;5051180;28;1288;-76
2022/07/31 12:06:06;;;;;;;;;;;;;;;;;;5052867;28;1976;-76
2022/07/31 12:08:34;;;;;;;;;;;;;;;;;;5052190;28;1316;-77
2022/07/31 12:11:00;;;;;;;;;;;;;;;;;;5033024;28;1291;-77
2022/07/31 12:13:27;;;;;;;;;;;;;;;;;;5051922;28;794;-77
2022/07/31 12:15:57;;;;;;;;;;;;;;;;;;5052169;28;1112;-78
2022/07/31 12:18:24;;;;;;;;;;;;;;;;;;5034537;28;1306;-76
2022/07/31 12:20:54;;;;;;;;;;;;;;;;;;5051868;28;1076;-77
2022/07/31 12:23:20;;;;;;;;;;;;;;;;;;5052143;28;806;-77
2022/07/31 12:25:47;;;;;;;;;;;;;;;;;;5052133;28;1923;-77
2022/07/31 12:28:14;;;;;;;;;;;;;;;;;;5052269;28;1360;-77
2022/07/31 12:30:40;;;;;;;;;;;;;;;;;;5051963;28;680;-77
2022/07/31 12:33:07;;;;;;;;;;;;;;;;;;5050111;28;1504;-77
2022/07/31 12:35:36;;;;;;;;;;;;;;;;;;5051373;28;1112;-77
2022/07/31 12:38:03;;;;;;;;;;;;;;;;;;5033949;28;1396;-76
2022/07/31 12:40:29;;;;;;;;;;;;;;;;;;5052196;28;1091;-76
2022/07/31 12:42:58;;;;;;;;;;;;;;;;;;5051288;28;1503;-77
2022/07/31 12:45:31;;;;;;;;;;;;;;;;;;5049453;28;1914;-77
2022/07/31 12:47:57;;;;;;;;;;;;;;;;;;5051178;28;1434;-76
2022/07/31 12:50:24;;;;;;;;;;;;;;;;;;5051781;28;1400;-76
2022/07/31 12:52:51;;;;;;;;;;;;;;;;;;5049810;28;1400;-77
2022/07/31 12:55:17;;;;;;;;;;;;;;;;;;5042005;28;1397;-76
2022/07/31 12:57:43;;;;;;;;;;;;;;;;;;5052125;28;1405;-75
2022/07/31 13:00:12;;;;;;;;;;;;;;;;;;5049745;28;1474;-77
2022/07/31 13:02:38;;;;;;;;;;;;;;;;;;5045651;28;1402;-77
2022/07/31 13:05:04;;;;;;;;;;;;;;;;;;5047319;28;1906;-77
2022/07/31 13:07:31;;;;;;;;;;;;;;;;;;5034920;28;1416;-76
2022/07/31 13:09:57;;;;;;;;;;;;;;;;;;5033007;28;1396;-76
2022/07/31 13:12:23;;;;;;;;;;;;;;;;;;5051625;28;1340;-76
2022/07/31 13:14:49;;;;;;;;;;;;;;;;;;5050317;28;1411;-77
2022/07/31 13:17:17;;;;;;;;;;;;;;;;;;5051860;28;1400;-77
2022/07/31 13:19:43;;;;;;;;;;;;;;;;;;5050701;28;1349;-77
2022/07/31 13:22:09;;;;;;;;;;;;;;;;;;5041837;28;1332;-77
2022/07/31 13:24:35;;;;;;;;;;;;;;;;;;5051455;28;1154;-77
2022/07/31 13:27:01;;;;;;;;;;;;;;;;;;5032023;28;1981;-77
2022/07/31 13:29:28;;;;;;;;;;;;;;;;;;5044999;28;1455;-76
2022/07/31 13:31:54;;;;;;;;;;;;;;;;;;5045720;28;1348;-76
2022/07/31 13:34:21;;;;;;;;;;;;;;;;;;5026054;28;1248;-76
2022/07/31 13:36:47;;;;;;;;;;;;;;;;;;5051812;28;1310;-76
2022/07/31 13:39:14;;;;;;;;;;;;;;;;;;5049303;28;1412;-77
2022/07/31 13:41:40;;;;;;;;;;;;;;;;;;5024825;28;1518;-76
2022/07/31 13:44:07;;;;;;;;;;;;;;;;;;5050640;28;1533;-77
2022/07/31 13:46:33;;;;;;;;;;;;;;;;;;5039938;28;1977;-77
2022/07/31 13:48:59;;;;;;;;;;;;;;;;;;5048501;28;1139;-77
2022/07/31 13:51:27;;;;;;;;;;;;;;;;;;5050434;28;1376;-76
2022/07/31 13:53:53;;;;;;;;;;;;;;;;;;5047274;28;1197;-77
2022/07/31 13:56:19;;;;;;;;;;;;;;;;;;5053009;28;1534;-76
2022/07/31 13:58:46;;;;;;;;;;;;;;;;;;5044447;28;1453;-76
2022/07/31 14:01:12;;;;;;;;;;;;;;;;;;5043217;28;1589;-76
2022/07/31 14:03:38;;;;;;;;;;;;;;;;;;5045523;28;1404;-76
2022/07/31 14:06:05;;;;;;;;;;;;;;;;;;5047787;28;1992;-76
2022/07/31 14:08:32;;;;;;;;;;;;;;;;;;5035293;28;1498;-76
2022/07/31 14:10:58;;;;;;;;;;;;;;;;;;5036835;28;1383;-75
2022/07/31 14:13:25;;;;;;;;;;;;;;;;;;5045829;28;1407;-76
2022/07/31 14:15:51;;;;;;;;;;;;;;;;;;5050806;28;1193;-77
2022/07/31 14:18:17;;;;;;;;;;;;;;;;;;5051160;28;1310;-76
2022/07/31 14:20:43;;;;;;;;;;;;;;;;;;5046782;28;1442;-76
2022/07/31 14:23:09;;;;;;;;;;;;;;;;;;5050369;28;1390;-77
2022/07/31 14:25:37;;;;;;;;;;;;;;;;;;5050068;28;1918;-76
2022/07/31 14:28:04;;;;;;;;;;;;;;;;;;5051613;28;1518;-76
2022/07/31 14:30:30;;;;;;;;;;;;;;;;;;5050743;28;1043;-75
2022/07/31 14:32:56;;;;;;;;;;;;;;;;;;5050263;28;790;-76
2022/07/31 14:35:22;;;;;;;;;;;;;;;;;;5051021;28;1142;-75
2022/07/31 14:37:49;;;;;;;;;;;;;;;;;;5050663;28;1298;-75
2022/07/31 14:40:15;;;;;;;;;;;;;;;;;;5046627;28;1426;-74
2022/07/31 14:42:42;;;;;;;;;;;;;;;;;;5044981;28;1139;-75
2022/07/31 14:45:09;;;;;;;;;;;;;;;;;;5050611;28;794;-74
2022/07/31 14:47:35;;;;;;;;;;;;;;;;;;5043383;28;1914;-75
2022/07/31 14:50:02;;;;;;;;;;;;;;;;;;5046966;28;1369;-76
2022/07/31 14:52:28;;;;;;;;;;;;;;;;;;5041583;28;1389;-75
2022/07/31 14:54:54;;;;;;;;;;;;;;;;;;5044101;28;1165;-75
2022/07/31 14:57:20;;;;;;;;;;;;;;;;;;5044783;28;1424;-75
2022/07/31 14:59:48;;;;;;;;;;;;;;;;;;5047327;28;1369;-75
2022/07/31 15:02:14;;;;;;;;;;;;;;;;;;5050243;28;1540;-75
2022/07/31 15:04:41;;;;;;;;;;;;;;;;;;5051338;28;1110;-75
2022/07/31 15:07:07;;;;;;;;;;;;;;;;;;5033769;28;1950;-76
2022/07/31 15:09:33;;;;;;;;;;;;;;;;;;5051793;28;1621;-75
2022/07/31 15:11:59;;;;;;;;;;;;;;;;;;5043329;28;1791;-75
2022/07/31 15:14:26;;;;;;;;;;;;;;;;;;5044330;28;1131;-76
2022/07/31 15:16:53;;;;;;;;;;;;;;;;;;5051006;28;1685;-75
2022/07/31 15:19:19;;;;;;;;;;;;;;;;;;5034312;28;1241;-75
2022/07/31 15:21:45;;;;;;;;;;;;;;;;;;5050022;28;1742;-75
2022/07/31 15:24:12;;;;;;;;;;;;;;;;;;5043597;28;1114;-75
2022/07/31 15:26:38;;;;;;;;;;;;;;;;;;5051801;28;1923;-75
2022/07/31 15:29:04;;;;;;;;;;;;;;;;;;5048455;28;2419;-75
2022/07/31 15:31:30;;;;;;;;;;;;;;;;;;5050722;28;1451;-75
2022/07/31 15:33:58;;;;;;;;;;;;;;;;;;5051562;28;1134;-75
2022/07/31 15:36:24;;;;;;;;;;;;;;;;;;5051519;28;1263;-75
2022/07/31 15:38:50;;;;;;;;;;;;;;;;;;5048687;28;1950;-75
2022/07/31 15:41:16;;;;;;;;;;;;;;;;;;5049935;28;1423;-74
2022/07/31 15:43:43;;;;;;;;;;;;;;;;;;5042834;28;1771;-74
2022/07/31 15:46:09;;;;;;;;;;;;;;;;;;5039204;28;1973;-74
2022/07/31 15:48:35;;;;;;;;;;;;;;;;;;5044131;28;1350;-74
2022/07/31 15:51:03;;;;;;;;;;;;;;;;;;5051670;28;1043;-75
2022/07/31 15:53:30;;;;;;;;;;;;;;;;;;5051348;28;960;-75
2022/07/31 15:55:56;;;;;;;;;;;;;;;;;;5050324;28;1799;-75
2022/07/31 15:58:22;;;;;;;;;;;;;;;;;;5049484;28;1344;-74
2022/07/31 16:00:48;;;;;;;;;;;;;;;;;;5048770;28;1818;-75
2022/07/31 16:03:14;;;;;;;;;;;;;;;;;;5050728;28;1257;-75
2022/07/31 16:05:41;;;;;;;;;;;;;;;;;;5051223;28;1142;-75
2022/07/31 16:08:08;;;;;;;;;;;;;;;;;;5049912;28;1918;-75
2022/07/31 16:10:34;;;;;;;;;;;;;;;;;;5034984;28;1803;-76
2022/07/31 16:13:01;;;;;;;;;;;;;;;;;;5050774;28;1109;-75
2022/07/31 16:15:27;;;;;;;;;;;;;;;;;;5051311;28;1005;-75
2022/07/31 16:17:53;;;;;;;;;;;;;;;;;;5039316;28;1763;-76
2022/07/31 16:20:21;;;;;;;;;;;;;;;;;;5051250;28;1280;-76
2022/07/31 16:22:50;;;;;;;;;;;;;;;;;;5049751;28;1691;-76
2022/07/31 16:25:17;;;;;;;;;;;;;;;;;;5039035;28;1816;-76
2022/07/31 16:27:44;;;;;;;;;;;;;;;;;;5049923;28;1977;-76
2022/07/31 16:30:12;;;;;;;;;;;;;;;;;;5051506;28;1923;-75
2022/07/31 16:32:38;;;;;;;;;;;;;;;;;;5051092;28;1439;-76
2022/07/31 16:35:05;;;;;;;;;;;;;;;;;;5052704;28;1149;-76
2022/07/31 16:37:31;;;;;;;;;;;;;;;;;;5052623;28;1390;-76
2022/07/31 16:39:58;;;;;;;;;;;;;;;;;;5051301;28;1755;-75
2022/07/31 16:42:26;;;;;;;;;;;;;;;;;;5042382;28;1736;-76
2022/07/31 16:44:53;;;;;;;;;;;;;;;;;;5052846;28;1161;-76
2022/07/31 16:47:19;;;;;;;;;;;;;;;;;;5025353;28;1911;-76
2022/07/31 16:49:45;;;;;;;;;;;;;;;;;;5052054;28;1196;-76
2022/07/31 16:52:12;;;;;;;;;;;;;;;;;;5048556;28;1815;-75
2022/07/31 16:54:38;;;;;;;;;;;;;;;;;;5049865;28;1679;-75
2022/07/31 16:57:05;;;;;;;;;;;;;;;;;;5051855;28;1436;-75
2022/07/31 16:59:33;;;;;;;;;;;;;;;;;;5046488;28;1700;-75
2022/07/31 17:01:59;;;;;;;;;;;;;;;;;;5046525;28;1522;-76
2022/07/31 17:04:25;;;;;;;;;;;;;;;;;;5049900;28;1461;-76
2022/07/31 17:06:51;;;;;;;;;;;;;;;;;;5049750;28;1918;-76
2022/07/31 17:09:17;;;;;;;;;;;;;;;;;;5047079;28;1532;-76
2022/07/31 17:11:44;;;;;;;;;;;;;;;;;;5031428;28;1629;-76
2022/07/31 17:14:10;;;;;;;;;;;;;;;;;;5051425;28;1223;-75
2022/07/31 17:16:38;;;;;;;;;;;;;;;;;;5050316;28;1369;-74
2022/07/31 17:19:04;;;;;;;;;;;;;;;;;;5024389;28;1232;-74
2022/07/31 17:21:30;;;;;;;;;;;;;;;;;;5049863;28;1351;-74